Time,TemperatureF,DewpointF,PressureIn,WindDirection,WindDirectionDegrees,WindSpeedMPH,WindSpeedGustMPH,Humidity,HourlyPrecipIn,Conditions,Clouds,dailyrainin,SolarRadiationWatts/m^2,SoftwareType,DateUTC
2013-03-13 00:52:00,61.0,2.0,-100.00,NNW,331,0.0,0.0,9,0.00,,,0.00,0.000000,,2013-03-13 07:52:00,
2013-03-13 01:53:00,59.0,3.0,-100.00,NNE,28,0.0,0.0,10,0.00,,,0.00,0.000000,,2013-03-13 08:53:00,
2013-03-13 02:02:00,59.0,3.0,-100.00,NNE,28,0.0,0.0,10,0.00,,,0.00,0.000000,,2013-03-13 09:02:00,
2013-03-13 02:52:00,60.0,1.0,-100.00,North,4,0.0,0.0,9,0.00,,,0.00,0.000000,,2013-03-13 09:52:00,
2013-03-13 03:52:00,58.0,2.0,-100.00,NNW,339,4.0,6.0,10,0.00,,,0.00,0.000000,,2013-03-13 10:52:00,
2013-03-13 04:52:00,59.0,3.0,-100.00,NNW,329,0.0,5.0,10,0.00,,,0.00,0.000000,,2013-03-13 11:52:00,
2013-03-13 05:53:00,59.0,0.0,-100.00,North,8,3.0,4.0,9,0.00,,,0.00,0.000000,,2013-03-13 12:53:00,
2013-03-13 06:52:00,60.0,5.0,-100.00,ENE,57,0.0,4.0,11,0.00,,,0.00,0.000000,,2013-03-13 13:52:00,
2013-03-13 07:02:00,60.0,5.0,-100.00,ENE,57,0.0,4.0,11,0.00,,,0.00,0.000000,,2013-03-13 14:02:00,
2013-03-13 07:12:00,60.0,5.0,-100.00,ENE,57,0.0,4.0,11,0.00,,,0.00,0.000000,,2013-03-13 14:12:00,
2013-03-13 07:21:00,60.0,5.0,-100.00,ENE,57,0.0,4.0,11,0.00,,,0.00,0.000000,,2013-03-13 14:21:00,
2013-03-13 08:02:00,60.0,7.0,-100.00,ENE,60,1.0,7.0,12,0.00,,,0.00,5.000000,,2013-03-13 15:02:00,
2013-03-13 08:12:00,60.0,7.0,-100.00,ENE,60,1.0,7.0,12,0.00,,,0.00,5.000000,,2013-03-13 15:12:00,
2013-03-13 08:22:00,60.0,7.0,-100.00,ENE,60,1.0,7.0,12,0.00,,,0.00,5.000000,,2013-03-13 15:22:00,
2013-03-13 08:52:00,66.0,6.0,-100.00,NNE,29,0.0,5.0,9,-99.99,,,0.00,161.000000,,2013-03-13 15:52:00,
2013-03-13 09:02:00,66.0,6.0,-100.00,NNE,29,0.0,5.0,9,-99.99,,,0.00,161.000000,,2013-03-13 16:02:00,
2013-03-13 09:52:00,65.0,5.0,-100.00,NNE,32,2.0,7.0,9,0.00,,,0.00,419.000000,,2013-03-13 16:52:00,
2013-03-13 10:53:00,65.0,2.0,-100.00,North,11,4.0,7.0,8,0.00,,,0.00,665.000000,,2013-03-13 17:53:00,
2013-03-13 11:52:00,68.0,5.0,-100.00,South,175,6.0,11.0,8,0.00,,,0.00,865.000000,,2013-03-13 18:52:00,
2013-03-13 12:53:00,73.0,5.0,-100.00,ENE,64,6.0,12.0,7,0.00,,,0.00,1001.000000,,2013-03-13 19:53:00,
2013-03-13 13:52:00,79.0,6.0,-100.00,SE,142,4.0,14.0,6,0.00,,,0.00,1054.000000,,2013-03-13 20:52:00,
2013-03-13 14:02:00,79.0,6.0,-100.00,SE,142,4.0,14.0,6,0.00,,,0.00,1054.000000,,2013-03-13 21:02:00,
2013-03-13 14:52:00,80.0,3.0,-100.00,SSE,150,1.0,12.0,5,0.00,,,0.00,1025.000000,,2013-03-13 21:52:00,
2013-03-13 15:52:00,79.0,2.0,-100.00,North,356,5.0,11.0,5,0.00,,,0.00,913.000000,,2013-03-13 22:52:00,
2013-03-13 16:52:00,78.0,6.0,-100.00,SSE,158,3.0,13.0,6,0.00,,,0.00,733.000000,,2013-03-13 23:52:00,
2013-03-13 17:52:00,77.0,5.0,-100.00,SSE,156,5.0,12.0,6,0.00,,,0.00,499.000000,,2013-03-14 00:52:00,
2013-03-13 18:53:00,71.0,7.0,-100.00,South,184,5.0,10.0,8,0.00,,,0.00,123.000000,,2013-03-14 01:53:00,
2013-03-13 20:01:00,68.0,7.0,-100.00,SSW,209,6.0,9.0,9,0.00,,,0.00,9.000000,,2013-03-14 03:01:00,
2013-03-13 20:52:00,69.0,8.0,-100.00,SW,216,6.0,8.0,9,0.00,,,0.00,0.000000,,2013-03-14 03:52:00,
2013-03-13 21:12:00,69.0,8.0,-100.00,SW,216,6.0,8.0,9,0.00,,,0.00,0.000000,,2013-03-14 04:12:00,
2013-03-13 21:22:00,69.0,8.0,-100.00,SW,216,6.0,8.0,9,0.00,,,0.00,0.000000,,2013-03-14 04:22:00,
2013-03-13 21:52:00,67.0,9.0,-100.00,SSW,211,7.0,9.0,10,0.00,,,0.00,0.000000,,2013-03-14 04:52:00,
2013-03-13 22:02:00,67.0,9.0,-100.00,SSW,211,7.0,9.0,10,0.00,,,0.00,0.000000,,2013-03-14 05:02:00,
2013-03-13 22:12:00,67.0,9.0,-100.00,SSW,211,7.0,9.0,10,0.00,,,0.00,0.000000,,2013-03-14 05:12:00,
2013-03-13 22:22:00,67.0,9.0,-100.00,SSW,211,7.0,9.0,10,0.00,,,0.00,0.000000,,2013-03-14 05:22:00,
2013-03-13 22:53:00,67.0,9.0,-100.00,SSW,192,10.0,12.0,10,0.00,,,0.00,0.000000,,2013-03-14 05:53:00,
2013-03-13 23:52:00,65.0,9.0,-100.00,South,175,9.0,11.0,11,0.00,,,0.00,0.000000,,2013-03-14 06:52:00,